Time;durP1;ratioP1;P1;durP2;ratioP2;P2;SDS_P1;SDS_P2;PMS_P1;PMS_P2;Temp;Humidity;BMP_temperature;BMP_pressure;BME280_temperature;BME280_humidity;BME280_pressure;Samples;Min_cycle;Max_cycle;Signal;HPM_P1;HPM_P2
2023/01/11 00:01:08;;;;;;;;;;;;;;;8.18;100.00;100231.28;4995345;28;19921;-80
2023/01/11 00:03:34;;;;;;;;;;;;;;;8.21;100.00;100225.84;5004621;28;19933;-79
2023/01/11 00:05:59;;;;;;;;;;;;;;;8.23;100.00;100225.78;5006436;28;19933;-79
2023/01/11 00:08:25;;;;;;;;;;;;;;;8.25;100.00;100231.84;4997609;28;20343;-78
2023/01/11 00:10:51;;;;;;;;;;;;;;;8.26;100.00;100225.66;5007243;28;19929;-79
2023/01/11 00:13:16;;;;;;;;;;;;;;;8.28;100.00;100218.50;5025871;28;20391;-79
2023/01/11 00:15:41;;;;;;;;;;;;;;;8.32;100.00;100224.53;5011106;28;19925;-80
2023/01/11 00:18:07;;;;;;;;;;;;;;;8.33;100.00;100220.97;5022328;28;20023;-78
2023/01/11 00:20:33;;;;;;;;;;;;;;;8.33;100.00;100207.78;5006049;28;20434;-79
2023/01/11 00:22:58;;;;;;;;;;;;;;;8.34;100.00;100218.22;5023960;28;19925;-79
2023/01/11 00:25:24;;;;;;;;;;;;;;;8.36;100.00;100223.44;4990950;28;19972;-79
2023/01/11 00:27:49;;;;;;;;;;;;;;;8.37;100.00;100219.88;5023885;28;19960;-79
2023/01/11 00:30:15;;;;;;;;;;;;;;;8.39;100.00;100212.78;5010744;28;19925;-78
2023/01/11 00:32:41;;;;;;;;;;;;;;;8.40;100.00;100230.31;5023274;28;20362;-78
2023/01/11 00:35:06;;;;;;;;;;;;;;;8.41;100.00;100209.09;4974706;28;19925;-79
2023/01/11 00:37:32;;;;;;;;;;;;;;;8.42;100.00;100216.13;5013016;28;19929;-79
2023/01/11 00:39:57;;;;;;;;;;;;;;;8.45;100.00;100223.03;5007577;28;19924;-78
2023/01/11 00:47:57;;;;;;;;;;;;;;;8.51;100.00;100225.38;5025210;28;20031;-78
2023/01/11 00:50:27;;;;;;;;;;;;;;;8.52;100.00;100216.56;5021252;28;19940;-78
2023/01/11 00:52:52;;;;;;;;;;;;;;;8.54;100.00;100222.63;5023367;28;19990;-78
2023/01/11 00:55:17;;;;;;;;;;;;;;;8.57;100.00;100219.00;4991563;28;20511;-79
2023/01/11 00:57:43;;;;;;;;;;;;;;;8.58;100.00;100222.47;5023626;28;19963;-80
2023/01/11 01:00:08;;;;;;;;;;;;;;;8.60;100.00;100218.84;5002233;28;20494;-80
2023/01/11 01:02:34;;;;;;;;;;;;;;;8.61;100.00;100210.00;5005384;28;20067;-81
2023/01/11 01:04:59;;;;;;;;;;;;;;;8.63;100.00;100210.78;5021797;28;19933;-79
2023/01/11 01:07:24;;;;;;;;;;;;;;;8.64;100.00;100215.13;5002622;28;20073;-79
2023/01/11 01:09:50;;;;;;;;;;;;;;;8.63;100.00;100204.66;5021605;28;19929;-79
2023/01/11 01:14:24;;;;;;;;;;;;;;;8.63;100.00;100207.28;5004575;28;19947;-79
2023/01/11 01:15:01;;;;;;;;;;;;;;;8.64;100.00;100201.06;5016530;28;20378;-79
2023/01/11 01:17:26;;;;;;;;;;;;;;;8.62;100.00;100201.16;5009420;28;19925;-79
2023/01/11 01:19:52;;;;;;;;;;;;;;;8.64;100.00;100203.72;5020526;28;20027;-79
2023/01/11 01:22:17;;;;;;;;;;;;;;;8.64;100.00;100206.34;5021061;28;19937;-80
2023/01/11 01:24:43;;;;;;;;;;;;;;;8.64;100.00;100195.78;5005466;28;19933;-79
2023/01/11 01:27:08;;;;;;;;;;;;;;;8.65;100.00;100197.50;5002714;28;20723;-80
2023/01/11 01:29:33;;;;;;;;;;;;;;;8.66;100.00;100188.69;5019938;28;20472;-79
2023/01/11 01:31:59;;;;;;;;;;;;;;;8.66;100.00;100204.50;5020779;28;19933;-81
2023/01/11 01:34:24;;;;;;;;;;;;;;;8.67;100.00;100203.59;5010551;28;19929;-80
2023/01/11 01:36:50;;;;;;;;;;;;;;;8.67;100.00;100200.94;5004349;28;20399;-80
2023/01/11 01:39:15;;;;;;;;;;;;;;;8.66;100.00;100191.31;5024676;28;19975;-80
2023/01/11 01:41:41;;;;;;;;;;;;;;;8.66;100.00;100208.00;5002566;28;19940;-80
2023/01/11 01:44:25;;;;;;;;;;;;;;;8.66;100.00;100202.72;5021989;28;19944;-79
2023/01/11 01:46:50;;;;;;;;;;;;;;;8.65;100.00;100208.94;4987497;28;19991;-79
2023/01/11 01:49:16;;;;;;;;;;;;;;;8.66;100.00;100213.28;5005926;28;20019;-79
2023/01/11 01:51:48;;;;;;;;;;;;;;;8.66;100.00;100220.34;5020579;28;19928;-79
2023/01/11 01:54:15;;;;;;;;;;;;;;;8.66;100.00;100221.19;5002664;28;20338;-80
2023/01/11 01:56:45;;;;;;;;;;;;;;;8.65;100.00;100223.88;5017966;28;19932;-80
2023/01/11 01:59:11;;;;;;;;;;;;;;;8.64;100.00;100214.28;5021869;28;19933;-79
2023/01/11 02:01:46;;;;;;;;;;;;;;;8.64;100.00;100211.63;5008151;28;19925;-80
2023/01/11 02:04:15;;;;;;;;;;;;;;;8.64;100.00;100232.75;5006515;28;19933;-80
2023/01/11 02:06:40;;;;;;;;;;;;;;;8.62;100.00;100227.56;5005668;28;19932;-80
2023/01/11 02:09:08;;;;;;;;;;;;;;;8.61;100.00;100232.91;5008738;28;20328;-78
2023/01/11 02:11:33;;;;;;;;;;;;;;;8.61;100.00;100232.91;5009696;28;19928;-79
2023/01/11 02:14:01;;;;;;;;;;;;;;;8.60;100.00;100223.28;5028173;28;20007;-79
2023/01/11 02:16:26;;;;;;;;;;;;;;;8.59;100.00;100230.31;5010951;28;19959;-79
2023/01/11 02:18:52;;;;;;;;;;;;;;;8.59;100.00;100238.25;5011472;28;20264;-78
2023/01/11 02:21:22;;;;;;;;;;;;;;;8.59;100.00;100242.66;5027869;28;19925;-79
2023/01/11 02:24:03;;;;;;;;;;;;;;;8.60;100.00;100233.81;5026817;28;20015;-80
2023/01/11 02:26:37;;;;;;;;;;;;;;;8.60;100.00;100239.09;5028282;28;19928;-80
2023/01/11 02:29:04;;;;;;;;;;;;;;;8.60;100.00;100239.94;5026821;28;19933;-80
2023/01/11 02:31:34;;;;;;;;;;;;;;;8.62;100.00;100245.16;5010570;28;19960;-80
2023/01/11 02:33:59;;;;;;;;;;;;;;;8.63;100.00;100236.31;5020817;28;20016;-80
2023/01/11 02:36:31;;;;;;;;;;;;;;;8.64;100.00;100241.53;5012341;28;20293;-80
2023/01/11 02:39:01;;;;;;;;;;;;;;;8.67;100.00;100245.81;5011971;28;19920;-80
2023/01/11 02:45:00;;;;;;;;;;;;;;;8.68;100.00;100247.50;5032379;28;20451;-79
2023/01/11 02:47:20;;;;;;;;;;;;;;;8.72;100.00;100256.97;5032235;28;20383;-79
2023/01/11 02:50:01;;;;;;;;;;;;;;;8.76;100.00;100250.63;5015172;28;19996;-79
2023/01/11 02:52:33;;;;;;;;;;;;;;;8.80;100.00;100257.50;5032745;28;20411;-80
2023/01/11 02:54:58;;;;;;;;;;;;;;;8.81;100.00;100253.91;5013920;28;20371;-80
2023/01/11 02:57:24;;;;;;;;;;;;;;;8.83;100.00;100259.97;4996700;28;19924;-80
2023/01/11 02:59:49;;;;;;;;;;;;;;;8.85;100.00;100259.03;5016652;28;19939;-81
2023/01/11 03:02:15;;;;;;;;;;;;;;;8.87;100.00;100279.16;5034142;28;19929;-80
2023/01/11 03:04:41;;;;;;;;;;;;;;;8.89;100.00;100271.19;5016628;28;19928;-80
2023/01/11 03:07:12;;;;;;;;;;;;;;;8.90;100.00;100267.59;5018466;28;20019;-79
2023/01/11 03:09:56;;;;;;;;;;;;;;;8.93;100.00;100264.84;5032399;28;19925;-78
2023/01/11 03:15:30;;;;;;;;;;;;;;;9.00;100.00;100265.38;5017960;28;20465;-82
2023/01/11 03:18:08;;;;;;;;;;;;;;;9.02;100.00;100260.88;5031297;28;20075;-79
2023/01/11 03:20:34;;;;;;;;;;;;;;;9.03;100.00;100279.28;5027898;28;19928;-78
2023/01/11 03:23:06;;;;;;;;;;;;;;;9.05;100.00;100282.69;4995625;28;19929;-77
2023/01/11 03:25:37;;;;;;;;;;;;;;;9.05;100.00;100279.22;5027192;28;19972;-78
2023/01/11 03:28:09;;;;;;;;;;;;;;;9.04;100.00;100283.63;5022465;28;20007;-80
2023/01/11 03:30:37;;;;;;;;;;;;;;;9.04;100.00;100286.28;5024069;28;20027;-79
2023/01/11 03:33:02;;;;;;;;;;;;;;;9.02;100.00;100292.56;5013329;28;20437;-79
2023/01/11 03:35:36;;;;;;;;;;;;;;;9.04;100.00;100290.72;5026457;28;20035;-79
2023/01/11 03:38:01;;;;;;;;;;;;;;;9.04;100.00;100290.72;5008094;28;19924;-78
2023/01/11 03:40:27;;;;;;;;;;;;;;;9.02;100.00;100297.84;5023139;28;20392;-79
2023/01/11 03:43:09;;;;;;;;;;;;;;;9.03;100.00;100295.13;5021946;28;19938;-80
2023/01/11 03:45:37;;;;;;;;;;;;;;;9.05;100.00;100303.00;5008044;28;19925;-80
2023/01/11 03:48:02;;;;;;;;;;;;;;;9.04;100.00;100312.69;5011365;28;19936;-80
2023/01/11 03:50:27;;;;;;;;;;;;;;;9.03;100.00;100305.69;5007084;28;19929;-80
2023/01/11 03:52:53;;;;;;;;;;;;;;;9.03;100.00;100321.53;5006601;28;20560;-79
2023/01/11 03:55:18;;;;;;;;;;;;;;;9.04;100.00;100327.69;4991319;28;20039;-80
2023/01/11 03:57:50;;;;;;;;;;;;;;;9.03;100.00;100332.09;5021834;28;19960;-80
2023/01/11 04:00:17;;;;;;;;;;;;;;;9.04;100.00;100323.25;4995533;28;19952;-79
2023/01/11 04:02:42;;;;;;;;;;;;;;;9.03;100.00;100324.19;5023443;28;20276;-80
2023/01/11 04:05:08;;;;;;;;;;;;;;;9.04;100.00;100333.81;5025326;28;19936;-81
2023/01/11 04:07:33;;;;;;;;;;;;;;;9.05;100.00;100350.53;5021932;28;20015;-81
2023/01/11 04:09:59;;;;;;;;;;;;;;;9.05;100.00;100358.44;5024100;28;21772;-79
2023/01/11 04:12:24;;;;;;;;;;;;;;;9.03;100.00;100353.22;5023405;28;19929;-81
2023/01/11 04:14:50;;;;;;;;;;;;;;;8.98;100.00;100349.94;5010621;28;19925;-80
2023/01/11 04:17:15;;;;;;;;;;;;;;;8.97;100.00;100356.16;5009429;28;19929;-80
2023/01/11 04:19:41;;;;;;;;;;;;;;;8.95;100.00;100358.00;5007932;28;19947;-81
2023/01/11 04:22:06;;;;;;;;;;;;;;;8.91;100.00;100365.22;5010840;28;19930;-80
2023/01/11 04:24:31;;;;;;;;;;;;;;;8.89;100.00;100364.41;5010870;28;19929;-81
2023/01/11 04:26:57;;;;;;;;;;;;;;;8.88;100.00;100361.88;5022647;28;20028;-78
2023/01/11 04:29:22;;;;;;;;;;;;;;;8.87;100.00;100365.44;5020119;28;19936;-80
2023/01/11 04:31:47;;;;;;;;;;;;;;;8.86;100.00;100363.69;5022639;28;20023;-79
2023/01/11 04:34:13;;;;;;;;;;;;;;;8.84;100.00;100377.00;5019638;28;20398;-79
2023/01/11 04:36:38;;;;;;;;;;;;;;;8.82;100.00;100382.34;5022944;28;19999;-79
2023/01/11 04:39:05;;;;;;;;;;;;;;;8.81;100.00;100388.53;5021503;28;19933;-79
2023/01/11 04:44:14;;;;;;;;;;;;;;;8.78;100.00;100401.03;5022241;28;19929;-83
2023/01/11 04:46:40;;;;;;;;;;;;;;;8.77;100.00;100391.41;5021126;28;21336;-80
2023/01/11 04:49:05;;;;;;;;;;;;;;;8.75;100.00;100402.00;4999723;28;19986;-80
2023/01/11 04:51:31;;;;;;;;;;;;;;;8.74;100.00;100410.88;5023295;28;19957;-81
2023/01/11 04:53:56;;;;;;;;;;;;;;;8.72;100.00;100409.22;5022787;28;19928;-81
2023/01/11 04:56:21;;;;;;;;;;;;;;;8.68;100.00;100405.84;5023635;28;19925;-80
2023/01/11 04:58:47;;;;;;;;;;;;;;;8.63;100.00;100403.44;5021043;28;20404;-81
2023/01/11 05:01:17;;;;;;;;;;;;;;;8.60;100.00;100407.97;5007609;28;20412;-81
2023/01/11 05:03:43;;;;;;;;;;;;;;;8.55;100.00;100424.00;5022265;28;19945;-80
2023/01/11 05:06:08;;;;;;;;;;;;;;;8.49;100.00;100416.34;5008121;28;20399;-80
2023/01/11 05:08:34;;;;;;;;;;;;;;;8.46;100.00;100419.09;5009235;28;20015;-80
2023/01/11 05:11:01;;;;;;;;;;;;;;;8.42;100.00;100419.25;5027575;28;20011;-80
2023/01/11 05:13:41;;;;;;;;;;;;;;;8.39;100.00;100421.16;5026195;28;19932;-79
2023/01/11 05:16:11;;;;;;;;;;;;;;;8.37;100.00;100412.44;5005394;28;19935;-80
2023/01/11 05:18:55;;;;;;;;;;;;;;;8.33;100.00;100416.97;5001769;28;19929;-80
2023/01/11 05:21:22;;;;;;;;;;;;;;;8.32;100.00;100424.97;5004536;28;20387;-80
2023/01/11 05:23:47;;;;;;;;;;;;;;;8.28;100.00;100430.38;5004957;28;20038;-80
2023/01/11 05:26:17;;;;;;;;;;;;;;;8.26;100.00;100434.88;5004862;28;20485;-81
2023/01/11 05:28:43;;;;;;;;;;;;;;;8.23;100.00;100442.06;4999178;28;19986;-80
2023/01/11 05:31:08;;;;;;;;;;;;;;;8.21;100.00;100439.47;5009232;28;19933;-80
2023/01/11 05:33:34;;;;;;;;;;;;;;;8.19;100.00;100436.03;5020889;28;20296;-80
2023/01/11 05:36:00;;;;;;;;;;;;;;;8.14;100.00;100438.88;5025560;28;20007;-80
2023/01/11 05:38:25;;;;;;;;;;;;;;;8.12;100.00;100445.13;5012187;28;20467;-80
2023/01/11 05:40:58;;;;;;;;;;;;;;;8.07;100.00;100447.09;5009113;28;19944;-79
2023/01/11 05:43:24;;;;;;;;;;;;;;;8.04;100.00;100449.84;5026115;28;20620;-80
2023/01/11 05:45:50;;;;;;;;;;;;;;;8.01;100.00;100453.50;5007629;28;19979;-80
2023/01/11 05:48:15;;;;;;;;;;;;;;;7.98;100.00;100457.09;5024954;28;20024;-80
2023/01/11 05:50:41;;;;;;;;;;;;;;;7.97;100.00;100463.31;5025395;28;20321;-80
2023/01/11 05:53:06;;;;;;;;;;;;;;;7.97;100.00;100465.94;5006948;28;19953;-81
2023/01/11 05:55:31;;;;;;;;;;;;;;;7.96;100.00;100466.00;5020219;28;20314;-81
2023/01/11 05:57:57;;;;;;;;;;;;;;;7.96;100.00;100461.56;5013572;28;20472;-81
2023/01/11 06:00:23;;;;;;;;;;;;;;;7.94;100.00;100468.69;5009030;28;19952;-80
2023/01/11 06:02:48;;;;;;;;;;;;;;;7.92;100.00;100486.34;5025744;28;19940;-79
2023/01/11 06:05:14;;;;;;;;;;;;;;;7.90;100.00;100477.63;5027031;28;19936;-80
2023/01/11 06:07:39;;;;;;;;;;;;;;;7.91;100.00;100481.13;4999696;28;19924;-81
2023/01/11 06:10:05;;;;;;;;;;;;;;;7.88;100.00;100476.84;5009900;28;20645;-80
2023/01/11 06:12:30;;;;;;;;;;;;;;;7.88;100.00;100477.72;5012643;28;20177;-79
2023/01/11 06:14:56;;;;;;;;;;;;;;;7.88;100.00;100482.97;5015628;28;19925;-80
2023/01/11 06:17:21;;;;;;;;;;;;;;;7.87;100.00;100488.31;5008897;28;19928;-80
2023/01/11 06:19:46;;;;;;;;;;;;;;;7.86;100.00;100497.13;5011022;28;19936;-92
2023/01/11 06:22:12;;;;;;;;;;;;;;;7.85;100.00;100498.06;5019733;28;19929;-82
2023/01/11 06:24:37;;;;;;;;;;;;;;;7.83;100.00;100498.13;4999105;28;19929;-77
2023/01/11 06:27:03;;;;;;;;;;;;;;;7.83;100.00;100497.25;5014066;28;20063;-78
2023/01/11 06:29:28;;;;;;;;;;;;;;;7.83;100.00;100497.25;5016357;28;19936;-80
2023/01/11 06:31:53;;;;;;;;;;;;;;;7.81;100.00;100501.72;5014413;28;19956;-79
2023/01/11 06:34:19;;;;;;;;;;;;;;;7.80;100.00;100494.75;5015899;28;20485;-79
2023/01/11 06:36:44;;;;;;;;;;;;;;;7.77;100.00;100495.72;4998245;28;19978;-79
2023/01/11 06:39:10;;;;;;;;;;;;;;;7.75;100.00;100493.13;5012657;28;20179;-79
2023/01/11 06:41:35;;;;;;;;;;;;;;;7.75;100.00;100494.94;4998359;28;19932;-79
2023/01/11 06:44:04;;;;;;;;;;;;;;;7.73;100.00;100496.75;5016198;28;19984;-79
2023/01/11 06:46:30;;;;;;;;;;;;;;;7.71;100.00;100507.38;5015991;28;20394;-78
2023/01/11 06:48:55;;;;;;;;;;;;;;;7.67;100.00;100507.56;4994316;28;19928;-79
2023/01/11 06:51:21;;;;;;;;;;;;;;;7.61;100.00;100512.13;5013130;28;19968;-78
2023/01/11 06:53:46;;;;;;;;;;;;;;;7.58;100.00;100506.97;5014490;28;19937;-78
2023/01/11 06:56:16;;;;;;;;;;;;;;;7.55;100.00;100520.25;4994558;28;20015;-79
2023/01/11 06:58:41;;;;;;;;;;;;;;;7.54;100.00;100517.69;5014015;28;20730;-79
2023/01/11 07:01:07;;;;;;;;;;;;;;;7.48;100.00;100514.34;5014530;28;19933;-78
2023/01/11 07:03:32;;;;;;;;;;;;;;;7.48;100.00;100527.53;5017721;28;19955;-79
2023/01/11 07:05:58;;;;;;;;;;;;;;;7.45;100.00;100527.66;5014794;28;20544;-79
2023/01/11 07:08:24;;;;;;;;;;;;;;;7.44;100.00;100528.56;5013573;28;20470;-78
2023/01/11 07:10:49;;;;;;;;;;;;;;;7.44;100.00;100532.97;5015567;28;19978;-79
2023/01/11 07:13:16;;;;;;;;;;;;;;;7.42;100.00;100530.38;5016407;28;19933;-78
2023/01/11 07:15:44;;;;;;;;;;;;;;;7.40;100.00;100529.59;5017264;28;19939;-79
2023/01/11 07:18:10;;;;;;;;;;;;;;;7.36;100.00;100532.41;5000156;28;19929;-79
2023/01/11 07:20:35;;;;;;;;;;;;;;;7.34;100.00;100529.81;5002308;28;19932;-78
2023/01/11 07:23:02;;;;;;;;;;;;;;;7.33;100.00;100528.09;4983013;28;20017;-77
2023/01/11 07:25:27;;;;;;;;;;;;;;;7.28;100.00;100530.91;4995688;28;19929;-77
2023/01/11 07:27:56;;;;;;;;;;;;;;;7.25;100.00;100532.81;4996431;28;20549;-79
2023/01/11 07:30:22;;;;;;;;;;;;;;;7.20;100.00;100541.72;5024989;28;20458;-79
2023/01/11 07:32:47;;;;;;;;;;;;;;;7.17;100.00;100552.38;5020749;28;19928;-77
2023/01/11 07:35:13;;;;;;;;;;;;;;;7.14;100.00;100557.72;5014822;28;19936;-79
2023/01/11 07:37:40;;;;;;;;;;;;;;;7.10;100.00;100561.41;5022770;28;19929;-77
2023/01/11 07:40:06;;;;;;;;;;;;;;;7.06;100.00;100567.69;5023898;28;19939;-78
2023/01/11 07:45:15;;;;;;;;;;;;;;;7.03;100.00;100578.34;5015803;28;20478;-79
2023/01/11 07:47:40;;;;;;;;;;;;;;;7.01;100.00;100578.38;5003440;28;19929;-78
2023/01/11 07:50:06;;;;;;;;;;;;;;;7.01;100.00;100591.53;5020164;28;20059;-79
2023/01/11 07:52:34;;;;;;;;;;;;;;;7.02;100.00;100600.28;5022926;28;19933;-79
2023/01/11 07:55:01;;;;;;;;;;;;;;;7.00;100.00;100595.09;5026702;28;19932;-79
2023/01/11 07:57:29;;;;;;;;;;;;;;;7.00;100.00;100597.72;5009731;28;19941;-79
2023/01/11 07:59:55;;;;;;;;;;;;;;;6.98;100.00;100606.56;5020720;28;20204;-76
2023/01/11 08:02:20;;;;;;;;;;;;;;;6.97;100.00;100591.69;5021890;28;20390;-76
2023/01/11 08:04:45;;;;;;;;;;;;;;;6.96;100.00;100606.63;5018960;28;20841;-77
2023/01/11 08:07:11;;;;;;;;;;;;;;;6.95;100.00;100609.28;5011998;28;20188;-77
2023/01/11 08:09:36;;;;;;;;;;;;;;;6.91;100.00;100619.94;4994593;28;19932;-77
2023/01/11 08:14:46;;;;;;;;;;;;;;;6.84;100.00;100634.22;5014536;28;20040;-76
2023/01/11 08:17:12;;;;;;;;;;;;;;;6.78;100.00;100644.94;5012524;28;20971;-77
2023/01/11 08:19:38;;;;;;;;;;;;;;;6.72;100.00;100646.03;5015890;28;19924;-77
2023/01/11 08:22:03;;;;;;;;;;;;;;;6.66;100.00;100639.16;5000782;28;20194;-77
2023/01/11 08:24:29;;;;;;;;;;;;;;;6.61;100.00;100627.94;5017817;28;20042;-77
2023/01/11 08:26:54;;;;;;;;;;;;;;;6.59;100.00;100637.63;5016267;28;19929;-78
2023/01/11 08:29:20;;;;;;;;;;;;;;;6.56;100.00;100639.50;4991822;28;20472;-78
2023/01/11 08:31:46;;;;;;;;;;;;;;;6.54;100.00;100636.91;5005250;28;20032;-77
2023/01/11 08:34:12;;;;;;;;;;;;;;;6.54;100.00;100636.91;5017558;28;19928;-77
2023/01/11 08:36:37;;;;;;;;;;;;;;;6.50;100.00;100651.09;5023934;28;19963;-78
2023/01/11 08:39:02;;;;;;;;;;;;;;;6.50;100.00;100656.34;5014310;28;20568;-77
2023/01/11 08:41:28;;;;;;;;;;;;;;;6.50;100.00;100664.25;5019049;28;20405;-78
2023/01/11 08:43:53;;;;;;;;;;;;;;;6.48;100.00;100668.72;5018764;28;19939;-78
2023/01/11 08:46:19;;;;;;;;;;;;;;;6.47;100.00;100685.38;5014955;28;19933;-77
2023/01/11 08:48:47;;;;;;;;;;;;;;;6.44;100.00;100688.09;5016149;28;19969;-77
2023/01/11 08:51:13;;;;;;;;;;;;;;;6.42;100.00;100695.19;5021483;28;20058;-79
2023/01/11 08:53:38;;;;;;;;;;;;;;;6.37;100.00;100698.81;5003059;28;19936;-78
2023/01/11 08:56:04;;;;;;;;;;;;;;;6.32;100.00;100708.59;5005208;28;19960;-78
2023/01/11 08:58:30;;;;;;;;;;;;;;;6.31;100.00;100708.66;5021711;28;19933;-78
2023/01/11 09:01:01;;;;;;;;;;;;;;;6.28;100.00;100709.63;5021791;28;20023;-77
2023/01/11 09:03:27;;;;;;;;;;;;;;;6.25;100.00;100707.06;5019284;28;21552;-78
2023/01/11 09:05:55;;;;;;;;;;;;;;;6.22;100.00;100715.06;5001880;28;19929;-78
2023/01/11 09:08:21;;;;;;;;;;;;;;;6.19;100.00;100717.75;5003138;28;20713;-78
2023/01/11 09:10:46;;;;;;;;;;;;;;;6.18;100.00;100705.53;5018286;28;19991;-77
2023/01/11 09:13:11;;;;;;;;;;;;;;;6.17;100.00;100712.56;5020366;28;19933;-78
2023/01/11 09:15:37;;;;;;;;;;;;;;;6.20;100.00;100703.69;5017839;28;19933;-78
2023/01/11 09:18:03;;;;;;;;;;;;;;;6.23;100.00;100701.84;5016014;28;20750;-76
2023/01/11 09:20:29;;;;;;;;;;;;;;;6.26;100.00;100706.16;5019726;28;19954;-76
2023/01/11 09:22:54;;;;;;;;;;;;;;;6.28;100.00;100699.09;5008696;28;19925;-76
2023/01/11 09:25:20;;;;;;;;;;;;;;;6.31;100.00;100704.25;5023541;28;19925;-78
2023/01/11 09:27:46;;;;;;;;;;;;;;;6.35;100.00;100705.91;5006557;28;19933;-79
2023/01/11 09:30:12;;;;;;;;;;;;;;;6.38;100.00;100705.78;5008479;28;20403;-77
2023/01/11 09:32:37;;;;;;;;;;;;;;;6.41;100.00;100699.56;5005924;28;20015;-78
2023/01/11 09:35:03;;;;;;;;;;;;;;;6.43;100.00;100707.44;5019352;28;19929;-79
2023/01/11 09:37:29;;;;;;;;;;;;;;;6.44;100.00;100696.88;5017385;28;20158;-79
2023/01/11 09:39:56;;;;;;;;;;;;;;;6.46;100.00;100713.47;5016409;28;19937;-77
2023/01/11 09:42:35;;;;;;;;;;;;;;;6.48;100.00;100709.00;4994760;28;19928;-77
2023/01/11 09:45:16;;;;;;;;;;;;;;;6.50;100.00;100715.06;5002075;28;19929;-77
2023/01/11 09:47:51;;;;;;;;;;;;;;;6.53;100.00;100708.84;5000445;28;21052;-77
2023/01/11 09:50:22;;;;;;;;;;;;;;;6.55;100.00;100709.69;5019864;28;20577;-77
2023/01/11 09:52:52;;;;;;;;;;;;;;;6.59;100.00;100711.31;5016470;28;20008;-76
2023/01/11 09:55:21;;;;;;;;;;;;;;;6.61;100.00;100711.25;5013612;28;19936;-79
2023/01/11 09:57:48;;;;;;;;;;;;;;;6.65;100.00;100719.00;5014408;28;19929;-78
2023/01/11 10:00:19;;;;;;;;;;;;;;;6.69;100.00;100716.28;5000123;28;19932;-78
2023/01/11 10:03:03;;;;;;;;;;;;;;;6.72;100.00;100721.44;5008757;28;20053;-77
2023/01/11 10:05:48;;;;;;;;;;;;;;;6.72;100.00;100718.81;5001909;28;19974;-77
2023/01/11 10:08:17;;;;;;;;;;;;;;;6.72;100.00;100719.69;5012283;28;19931;-77
2023/01/11 10:10:50;;;;;;;;;;;;;;;6.77;100.00;100722.16;5010980;28;21090;-77
2023/01/11 10:13:31;;;;;;;;;;;;;;;6.77;100.00;100730.06;4998008;28;19936;-78
2023/01/11 10:16:21;;;;;;;;;;;;;;;6.79;100.00;100730.88;5016070;28;19928;-77
2023/01/11 10:18:57;;;;;;;;;;;;;;;6.83;100.00;100735.13;4993597;28;19925;-79
2023/01/11 10:21:27;;;;;;;;;;;;;;;6.85;100.00;100728.03;5014537;28;19936;-79
2023/01/11 10:24:01;;;;;;;;;;;;;;;6.88;100.00;100727.09;4997845;28;19925;-78
2023/01/11 10:26:28;;;;;;;;;;;;;;;6.91;100.00;100726.97;5015352;28;20462;-78
2023/01/11 10:29:13;;;;;;;;;;;;;;;6.95;100.00;100727.75;4980089;28;19925;-78
2023/01/11 10:32:07;;;;;;;;;;;;;;;6.97;100.00;100745.22;5000591;28;20498;-77
2023/01/11 10:35:16;;;;;;;;;;;;;;;6.98;100.00;100744.28;4990065;28;19925;-77
2023/01/11 10:43:21;;;;;;;;;;;;;;;7.03;100.00;100745.00;5021777;28;19964;-79
2023/01/11 10:46:16;;;;;;;;;;;;;;;7.03;100.00;100750.28;5005666;28;19936;-78
2023/01/11 10:48:44;;;;;;;;;;;;;;;7.07;100.00;100751.03;4998042;28;19925;-78
2023/01/11 10:51:16;;;;;;;;;;;;;;;7.09;100.00;100751.00;5021302;28;19971;-78
2023/01/11 10:53:42;;;;;;;;;;;;;;;7.08;100.00;100755.41;5017351;28;20291;-79
2023/01/11 10:56:10;;;;;;;;;;;;;;;7.09;100.00;100753.63;5013935;28;19956;-77
2023/01/11 10:58:37;;;;;;;;;;;;;;;7.10;100.00;100756.22;5027549;28;20642;-79
2023/01/11 11:01:15;;;;;;;;;;;;;;;7.11;100.00;100752.69;5025888;28;19921;-77
2023/01/11 11:04:00;;;;;;;;;;;;;;;7.13;100.00;100750.84;5012326;28;19932;-78
2023/01/11 11:06:40;;;;;;;;;;;;;;;7.16;100.00;100742.88;5023221;28;19941;-77
2023/01/11 11:09:19;;;;;;;;;;;;;;;7.18;100.00;100742.78;4992665;28;20024;-76
2023/01/11 11:11:51;;;;;;;;;;;;;;;7.20;100.00;100744.47;5006774;28;19959;-78
2023/01/11 11:14:28;;;;;;;;;;;;;;;7.23;100.00;100745.31;5007009;28;20388;-78
2023/01/11 11:17:03;;;;;;;;;;;;;;;7.26;100.00;100755.72;5002093;28;19980;-77
2023/01/11 11:19:31;;;;;;;;;;;;;;;7.26;100.00;100748.69;4988367;28;19932;-77
2023/01/11 11:21:56;;;;;;;;;;;;;;;7.31;100.00;100751.16;4988095;28;22540;-77
2023/01/11 11:24:31;;;;;;;;;;;;;;;7.33;100.00;100754.59;5018124;28;19966;-78
2023/01/11 11:27:35;;;;;;;;;;;;;;;7.38;100.00;100763.22;5024532;28;19963;-78
2023/01/11 11:30:02;;;;;;;;;;;;;;;7.40;100.00;100758.75;4917411;28;19937;-78
2023/01/11 11:32:29;;;;;;;;;;;;;;;7.41;100.00;100757.00;5000864;28;20019;-78
2023/01/11 11:34:54;;;;;;;;;;;;;;;7.41;100.00;100749.94;5034220;28;21557;-79
2023/01/11 11:37:24;;;;;;;;;;;;;;;7.43;100.00;100749.88;5025112;28;19933;-79
2023/01/11 11:39:50;;;;;;;;;;;;;;;7.41;100.00;100749.09;5026604;28;19939;-80
2023/01/11 11:42:15;;;;;;;;;;;;;;;7.41;100.00;100754.34;5005933;28;19917;-79
2023/01/11 11:44:44;;;;;;;;;;;;;;;7.41;100.00;100749.94;5024430;28;19924;-79
2023/01/11 11:47:14;;;;;;;;;;;;;;;7.42;100.00;100746.38;5025553;28;19979;-79
2023/01/11 11:49:40;;;;;;;;;;;;;;;7.42;100.00;100749.00;5028052;28;19929;-79
2023/01/11 11:52:08;;;;;;;;;;;;;;;7.46;100.00;100742.75;5014756;28;19969;-80
2023/01/11 11:54:42;;;;;;;;;;;;;;;7.46;100.00;100748.00;5017696;28;19908;-79
2023/01/11 11:57:13;;;;;;;;;;;;;;;7.50;100.00;100739.97;5014371;28;20384;-79
2023/01/11 11:59:39;;;;;;;;;;;;;;;7.53;100.00;100743.41;5007221;28;20845;-80
2023/01/11 12:02:05;;;;;;;;;;;;;;;7.56;100.00;100745.03;5041854;28;20016;-79
2023/01/11 12:04:32;;;;;;;;;;;;;;;7.58;100.00;100741.44;4980439;28;20533;-78
2023/01/11 12:07:06;;;;;;;;;;;;;;;7.61;100.00;100751.03;4995929;28;20416;-79
2023/01/11 12:09:34;;;;;;;;;;;;;;;7.64;100.00;100752.69;5014397;28;20183;-78
2023/01/11 12:12:00;;;;;;;;;;;;;;;7.64;100.00;100750.94;5018234;28;21913;-78
2023/01/11 12:14:33;;;;;;;;;;;;;;;7.67;100.00;100753.44;5024476;28;19925;-78
2023/01/11 12:17:00;;;;;;;;;;;;;;;7.70;100.00;100756.00;5004163;28;19925;-78
2023/01/11 12:19:26;;;;;;;;;;;;;;;7.71;100.00;100754.22;4989425;28;19929;-80
2023/01/11 12:21:51;;;;;;;;;;;;;;;7.75;100.00;100748.78;5018505;28;20894;-84
2023/01/11 12:24:21;;;;;;;;;;;;;;;7.80;100.00;100755.66;5020734;28;19939;-79
2023/01/11 12:27:08;;;;;;;;;;;;;;;7.82;100.00;100746.78;4995899;28;19929;-79
2023/01/11 12:29:40;;;;;;;;;;;;;;;7.86;100.00;100755.44;5023896;28;19929;-78
2023/01/11 12:32:11;;;;;;;;;;;;;;;7.85;100.00;100751.09;5026603;28;19989;-80
2023/01/11 12:34:46;;;;;;;;;;;;;;;7.83;100.00;100751.16;4999780;28;20281;-79
2023/01/11 12:37:19;;;;;;;;;;;;;;;7.83;100.00;100750.28;5007089;28;20372;-78
2023/01/11 12:39:44;;;;;;;;;;;;;;;7.80;100.00;100756.50;5023492;28;19921;-79
2023/01/11 12:42:12;;;;;;;;;;;;;;;7.78;100.00;100762.78;5019811;28;20307;-79
2023/01/11 12:44:43;;;;;;;;;;;;;;;7.76;100.00;100749.66;5008797;28;20959;-79
2023/01/11 12:47:27;;;;;;;;;;;;;;;7.77;100.00;100768.94;5012336;28;19971;-79
2023/01/11 12:50:12;;;;;;;;;;;;;;;7.77;100.00;100763.66;5003769;28;19925;-77
2023/01/11 12:52:41;;;;;;;;;;;;;;;7.71;100.00;100762.97;5006076;28;20482;-80
2023/01/11 12:55:10;;;;;;;;;;;;;;;7.70;100.00;100760.41;5023144;28;19933;-78
2023/01/11 12:57:35;;;;;;;;;;;;;;;7.70;100.00;100763.03;5007293;28;19931;-78
2023/01/11 13:00:07;;;;;;;;;;;;;;;7.69;100.00;100762.16;5022843;28;20299;-77
2023/01/11 13:02:51;;;;;;;;;;;;;;;7.69;100.00;100759.53;5024305;28;19925;-77
2023/01/11 13:05:23;;;;;;;;;;;;;;;7.73;100.00;100755.00;5020806;28;20588;-77
2023/01/11 13:07:51;;;;;;;;;;;;;;;7.75;100.00;100769.84;5005473;28;19999;-77